sensor_id;sensor_type;location;lat;lon;timestamp;pressure;altitude;pressure_sealevel;temperature;humidity
63903;BME280;50072;50.678;13.938;2023-11-19T00:02:04;99738.38;;;2.71;100.00
63903;BME280;50072;50.678;13.938;2023-11-19T00:04:32;99750.81;;;2.84;100.00
63903;BME280;50072;50.678;13.938;2023-11-19T00:07:02;99749.09;;;2.89;100.00
63903;BME280;50072;50.678;13.938;2023-11-19T00:09:33;99747.31;;;2.91;100.00
63903;BME280;50072;50.678;13.938;2023-11-19T00:12:01;99738.53;;;2.92;100.00
63903;BME280;50072;50.678;13.938;2023-11-19T00:14:33;99727.03;;;2.90;100.00
63903;BME280;50072;50.678;13.938;2023-11-19T00:17:04;99710.31;;;2.88;100.00
63903;BME280;50072;50.678;13.938;2023-11-19T00:19:32;99703.31;;;2.95;100.00
63903;BME280;50072;50.678;13.938;2023-11-19T00:21:58;99701.56;;;2.99;100.00
63903;BME280;50072;50.678;13.938;2023-11-19T00:24:28;99708.63;;;3.03;100.00
63903;BME280;50072;50.678;13.938;2023-11-19T00:26:57;99698.91;;;2.99;100.00
63903;BME280;50072;50.678;13.938;2023-11-19T00:29:32;99704.19;;;2.96;100.00
63903;BME280;50072;50.678;13.938;2023-11-19T00:31:58;99697.13;;;2.98;100.00
63903;BME280;50072;50.678;13.938;2023-11-19T00:34:32;99686.53;;;2.94;100.00
63903;BME280;50072;50.678;13.938;2023-11-19T00:37:02;99680.38;;;2.89;100.00
63903;BME280;50072;50.678;13.938;2023-11-19T00:39:35;99685.59;;;2.88;100.00
63903;BME280;50072;50.678;13.938;2023-11-19T00:42:02;99671.53;;;2.87;100.00
63903;BME280;50072;50.678;13.938;2023-11-19T00:44:28;99668.91;;;2.93;100.00
63903;BME280;50072;50.678;13.938;2023-11-19T00:47:02;99670.66;;;2.87;100.00
63903;BME280;50072;50.678;13.938;2023-11-19T00:49:32;99660.84;;;2.72;100.00
63903;BME280;50072;50.678;13.938;2023-11-19T00:52:02;99676.75;;;2.78;100.00
63903;BME280;50072;50.678;13.938;2023-11-19T00:54:32;99653.81;;;2.74;100.00
63903;BME280;50072;50.678;13.938;2023-11-19T00:56:58;99655.63;;;2.78;100.00
63903;BME280;50072;50.678;13.938;2023-11-19T00:59:24;99658.25;;;2.78;100.00
63903;BME280;50072;50.678;13.938;2023-11-19T01:01:56;99662.66;;;2.79;100.00
63903;BME280;50072;50.678;13.938;2023-11-19T01:04:24;99646.84;;;2.82;100.00
63903;BME280;50072;50.678;13.938;2023-11-19T01:06:55;99644.16;;;2.78;100.00
63903;BME280;50072;50.678;13.938;2023-11-19T01:09:32;99639.75;;;2.78;100.00
63903;BME280;50072;50.678;13.938;2023-11-19T01:12:02;99637.13;;;2.76;100.00
63903;BME280;50072;50.678;13.938;2023-11-19T01:14:28;99645.06;;;2.81;100.00
63903;BME280;50072;50.678;13.938;2023-11-19T01:16:54;99650.34;;;2.81;100.00
63903;BME280;50072;50.678;13.938;2023-11-19T01:19:32;99626.50;;;2.73;100.00
63903;BME280;50072;50.678;13.938;2023-11-19T01:22:02;99627.44;;;2.86;100.00
63903;BME280;50072;50.678;13.938;2023-11-19T01:24:33;99612.50;;;2.90;100.00
63903;BME280;50072;50.678;13.938;2023-11-19T01:27:02;99603.72;;;2.96;100.00
63903;BME280;50072;50.678;13.938;2023-11-19T01:29:30;99594.06;;;3.01;100.00
63903;BME280;50072;50.678;13.938;2023-11-19T01:32:02;99574.66;;;2.99;100.00
63903;BME280;50072;50.678;13.938;2023-11-19T01:34:28;99580.78;;;2.94;100.00
63903;BME280;50072;50.678;13.938;2023-11-19T01:36:56;99577.31;;;3.02;100.00
63903;BME280;50072;50.678;13.938;2023-11-19T01:39:33;99579.91;;;2.92;100.00
63903;BME280;50072;50.678;13.938;2023-11-19T01:42:00;99572.00;;;2.97;100.00
63903;BME280;50072;50.678;13.938;2023-11-19T01:44:27;99579.94;;;3.05;100.00
63903;BME280;50072;50.678;13.938;2023-11-19T01:46:53;99583.50;;;3.08;100.00
63903;BME280;50072;50.678;13.938;2023-11-19T01:49:32;99569.41;;;3.11;100.00
63903;BME280;50072;50.678;13.938;2023-11-19T01:51:58;99571.16;;;3.12;100.00
63903;BME280;50072;50.678;13.938;2023-11-19T01:54:25;99570.34;;;3.19;100.00
63903;BME280;50072;50.678;13.938;2023-11-19T01:56:53;99568.53;;;3.12;100.00
63903;BME280;50072;50.678;13.938;2023-11-19T01:59:24;99566.78;;;3.20;100.00
63903;BME280;50072;50.678;13.938;2023-11-19T02:01:55;99571.22;;;3.21;100.00
63903;BME280;50072;50.678;13.938;2023-11-19T02:04:24;99559.78;;;3.30;100.00
63903;BME280;50072;50.678;13.938;2023-11-19T02:07:02;99556.25;;;3.30;100.00
63903;BME280;50072;50.678;13.938;2023-11-19T02:09:28;99541.25;;;3.28;100.00
63903;BME280;50072;50.678;13.938;2023-11-19T02:12:03;99522.75;;;3.35;100.00
63903;BME280;50072;50.678;13.938;2023-11-19T02:14:32;99514.81;;;3.35;100.00
63903;BME280;50072;50.678;13.938;2023-11-19T02:17:02;99500.72;;;3.33;100.00
63903;BME280;50072;50.678;13.938;2023-11-19T02:19:34;99504.22;;;3.35;100.00
63903;BME280;50072;50.678;13.938;2023-11-19T02:22:02;99505.13;;;3.35;100.00
63903;BME280;50072;50.678;13.938;2023-11-19T02:24:34;99515.72;;;3.34;100.00
63903;BME280;50072;50.678;13.938;2023-11-19T02:30:32;99503.31;;;3.19;100.00
63903;BME280;50072;50.678;13.938;2023-11-19T02:33:02;99485.72;;;3.22;100.00
63903;BME280;50072;50.678;13.938;2023-11-19T02:35:32;99476.00;;;3.26;100.00
63903;BME280;50072;50.678;13.938;2023-11-19T02:38:00;99474.25;;;3.36;100.00
63903;BME280;50072;50.678;13.938;2023-11-19T02:40:37;99477.81;;;3.41;100.00
63903;BME280;50072;50.678;13.938;2023-11-19T02:43:20;99472.47;;;3.35;100.00
63903;BME280;50072;50.678;13.938;2023-11-19T02:45:48;99458.38;;;3.40;100.00
63903;BME280;50072;50.678;13.938;2023-11-19T02:48:24;99447.81;;;3.45;100.00
63903;BME280;50072;50.678;13.938;2023-11-19T02:50:51;99443.41;;;3.41;100.00
63903;BME280;50072;50.678;13.938;2023-11-19T02:53:18;99449.56;;;3.35;100.00
63903;BME280;50072;50.678;13.938;2023-11-19T02:55:54;99448.69;;;3.32;100.00
63903;BME280;50072;50.678;13.938;2023-11-19T02:58:35;99411.63;;;3.11;100.00
63903;BME280;50072;50.678;13.938;2023-11-19T03:01:02;99428.41;;;3.21;100.00
63903;BME280;50072;50.678;13.938;2023-11-19T03:03:39;99400.19;;;3.17;100.00
63903;BME280;50072;50.678;13.938;2023-11-19T03:06:08;99400.19;;;3.23;100.00
63903;BME280;50072;50.678;13.938;2023-11-19T03:08:51;99391.38;;;3.23;100.00
63903;BME280;50072;50.678;13.938;2023-11-19T03:11:32;99391.34;;;3.31;100.00
63903;BME280;50072;50.678;13.938;2023-11-19T03:14:02;99371.97;;;3.27;100.00
63903;BME280;50072;50.678;13.938;2023-11-19T03:16:32;99365.81;;;3.17;100.00
63903;BME280;50072;50.678;13.938;2023-11-19T03:18:58;99363.16;;;3.14;100.00
63903;BME280;50072;50.678;13.938;2023-11-19T03:21:32;99356.13;;;3.19;100.00
63903;BME280;50072;50.678;13.938;2023-11-19T03:23:58;99346.44;;;3.15;100.00
63903;BME280;50072;50.678;13.938;2023-11-19T03:26:27;99337.63;;;3.02;100.00
63903;BME280;50072;50.678;13.938;2023-11-19T03:28:57;99346.41;;;3.12;100.00
63903;BME280;50072;50.678;13.938;2023-11-19T03:31:34;99357.88;;;3.14;100.00
63903;BME280;50072;50.678;13.938;2023-11-19T03:34:02;99346.41;;;3.07;100.00
63903;BME280;50072;50.678;13.938;2023-11-19T03:36:38;99349.06;;;3.07;100.00
63903;BME280;50072;50.678;13.938;2023-11-19T03:39:24;99352.59;;;3.14;100.00
63903;BME280;50072;50.678;13.938;2023-11-19T03:41:52;99353.47;;;3.11;100.00
63903;BME280;50072;50.678;13.938;2023-11-19T03:44:18;99340.25;;;3.13;100.00
63903;BME280;50072;50.678;13.938;2023-11-19T03:46:53;99324.38;;;3.13;100.00
63903;BME280;50072;50.678;13.938;2023-11-19T03:49:19;99326.16;;;3.14;100.00
63903;BME280;50072;50.678;13.938;2023-11-19T03:51:48;99322.63;;;3.18;100.00
63903;BME280;50072;50.678;13.938;2023-11-19T03:54:16;99315.56;;;3.14;100.00
63903;BME280;50072;50.678;13.938;2023-11-19T03:56:43;99306.78;;;3.15;100.00
63903;BME280;50072;50.678;13.938;2023-11-19T03:59:09;99300.56;;;3.16;100.00
63903;BME280;50072;50.678;13.938;2023-11-19T04:01:52;99287.34;;;3.16;100.00
63903;BME280;50072;50.678;13.938;2023-11-19T04:04:25;99273.28;;;3.11;100.00
63903;BME280;50072;50.678;13.938;2023-11-19T04:06:56;99294.41;;;3.17;100.00
63903;BME280;50072;50.678;13.938;2023-11-19T04:09:24;99305.00;;;3.14;100.00
63903;BME280;50072;50.678;13.938;2023-11-19T04:11:52;99301.47;;;3.09;100.00
63903;BME280;50072;50.678;13.938;2023-11-19T04:14:24;99296.19;;;3.09;100.00
63903;BME280;50072;50.678;13.938;2023-11-19T04:16:56;99283.84;;;3.08;100.00
63903;BME280;50072;50.678;13.938;2023-11-19T04:19:24;99275.91;;;3.13;100.00
63903;BME280;50072;50.678;13.938;2023-11-19T04:21:57;99256.50;;;3.10;100.00
63903;BME280;50072;50.678;13.938;2023-11-19T04:24:24;99255.66;;;3.10;100.00
63903;BME280;50072;50.678;13.938;2023-11-19T04:26:51;99254.75;;;3.16;100.00
63903;BME280;50072;50.678;13.938;2023-11-19T04:29:32;99245.06;;;3.19;100.00
63903;BME280;50072;50.678;13.938;2023-11-19T04:31:58;99228.31;;;3.11;100.00
63903;BME280;50072;50.678;13.938;2023-11-19T04:34:26;99236.25;;;3.16;100.00
63903;BME280;50072;50.678;13.938;2023-11-19T04:36:53;99225.66;;;3.14;100.00
63903;BME280;50072;50.678;13.938;2023-11-19T04:39:25;99220.38;;;3.14;100.00
63903;BME280;50072;50.678;13.938;2023-11-19T04:41:54;99210.69;;;3.08;100.00
63903;BME280;50072;50.678;13.938;2023-11-19T04:44:32;99213.38;;;3.04;100.00
63903;BME280;50072;50.678;13.938;2023-11-19T04:47:03;99198.38;;;3.04;100.00
63903;BME280;50072;50.678;13.938;2023-11-19T04:49:32;99195.72;;;3.04;100.00
63903;BME280;50072;50.678;13.938;2023-11-19T04:52:04;99212.47;;;3.02;100.00
63903;BME280;50072;50.678;13.938;2023-11-19T04:54:32;99197.50;;;2.93;100.00
63903;BME280;50072;50.678;13.938;2023-11-19T04:56:58;99205.41;;;2.98;100.00
63903;BME280;50072;50.678;13.938;2023-11-19T04:59:26;99200.13;;;2.96;100.00
63903;BME280;50072;50.678;13.938;2023-11-19T05:01:53;99201.03;;;2.92;100.00
63903;BME280;50072;50.678;13.938;2023-11-19T05:04:26;99198.41;;;2.97;100.00
63903;BME280;50072;50.678;13.938;2023-11-19T05:07:03;99203.69;;;2.95;100.00
63903;BME280;50072;50.678;13.938;2023-11-19T05:09:30;99200.16;;;3.01;100.00
63903;BME280;50072;50.678;13.938;2023-11-19T05:11:56;99186.03;;;2.99;100.00
63903;BME280;50072;50.678;13.938;2023-11-19T05:14:32;99170.19;;;2.99;100.00
63903;BME280;50072;50.678;13.938;2023-11-19T05:17:04;99169.28;;;3.03;100.00
63903;BME280;50072;50.678;13.938;2023-11-19T05:19:32;99164.00;;;3.04;100.00
63903;BME280;50072;50.678;13.938;2023-11-19T05:22:02;99165.75;;;3.07;100.00
63903;BME280;50072;50.678;13.938;2023-11-19T05:24:34;99193.94;;;3.13;100.00
63903;BME280;50072;50.678;13.938;2023-11-19T05:27:00;99190.41;;;3.12;100.00
63903;BME280;50072;50.678;13.938;2023-11-19T05:29:32;99180.72;;;3.13;100.00
63903;BME280;50072;50.678;13.938;2023-11-19T05:32:02;99161.31;;;3.20;100.00
63903;BME280;50072;50.678;13.938;2023-11-19T05:34:32;99169.22;;;3.24;100.00
63903;BME280;50072;50.678;13.938;2023-11-19T05:37:02;99171.00;;;3.24;100.00
63903;BME280;50072;50.678;13.938;2023-11-19T05:39:32;99160.44;;;3.22;100.00
63903;BME280;50072;50.678;13.938;2023-11-19T05:42:02;99137.50;;;3.21;100.00
63903;BME280;50072;50.678;13.938;2023-11-19T05:44:28;99140.16;;;3.18;100.00
63903;BME280;50072;50.678;13.938;2023-11-19T05:47:02;99134.00;;;3.16;100.00
63903;BME280;50072;50.678;13.938;2023-11-19T05:49:29;99119.88;;;3.17;100.00
63903;BME280;50072;50.678;13.938;2023-11-19T05:52:02;99124.25;;;3.26;100.00
63903;BME280;50072;50.678;13.938;2023-11-19T05:54:34;99095.19;;;3.21;100.00
63903;BME280;50072;50.678;13.938;2023-11-19T05:57:24;99139.28;;;3.22;100.00
63903;BME280;50072;50.678;13.938;2023-11-19T05:59:54;99140.13;;;3.26;100.00
63903;BME280;50072;50.678;13.938;2023-11-19T06:02:32;99136.59;;;3.30;100.00
63903;BME280;50072;50.678;13.938;2023-11-19T06:04:58;99124.22;;;3.31;100.00
63903;BME280;50072;50.678;13.938;2023-11-19T06:07:30;99128.69;;;3.24;100.00
63903;BME280;50072;50.678;13.938;2023-11-19T06:10:04;99137.50;;;3.24;100.00
63903;BME280;50072;50.678;13.938;2023-11-19T06:12:33;99125.16;;;3.26;100.00
63903;BME280;50072;50.678;13.938;2023-11-19T06:15:05;99126.91;;;3.24;100.00
63903;BME280;50072;50.678;13.938;2023-11-19T06:17:32;99126.06;;;3.21;100.00
63903;BME280;50072;50.678;13.938;2023-11-19T06:20:03;99128.69;;;3.24;100.00
63903;BME280;50072;50.678;13.938;2023-11-19T06:22:32;99134.84;;;3.24;100.00
63903;BME280;50072;50.678;13.938;2023-11-19T06:25:02;99121.63;;;3.24;100.00
63903;BME280;50072;50.678;13.938;2023-11-19T06:27:32;99117.22;;;3.22;100.00
63903;BME280;50072;50.678;13.938;2023-11-19T06:30:00;99129.56;;;3.23;100.00
63903;BME280;50072;50.678;13.938;2023-11-19T06:32:27;99123.38;;;3.25;100.00
63903;BME280;50072;50.678;13.938;2023-11-19T06:34:56;99121.63;;;3.24;100.00
63903;BME280;50072;50.678;13.938;2023-11-19T06:37:30;99111.94;;;3.26;100.00
63903;BME280;50072;50.678;13.938;2023-11-19T06:39:57;99097.78;;;3.31;100.00
63903;BME280;50072;50.678;13.938;2023-11-19T06:42:24;99099.50;;;3.36;100.00
63903;BME280;50072;50.678;13.938;2023-11-19T06:44:54;99093.34;;;3.39;100.00
63903;BME280;50072;50.678;13.938;2023-11-19T06:47:32;99088.06;;;3.36;100.00
63903;BME280;50072;50.678;13.938;2023-11-19T06:50:05;99086.31;;;3.38;100.00
63903;BME280;50072;50.678;13.938;2023-11-19T06:52:32;99077.47;;;3.40;100.00
63903;BME280;50072;50.678;13.938;2023-11-19T06:55:01;99085.38;;;3.45;100.00
63903;BME280;50072;50.678;13.938;2023-11-19T06:57:32;99088.03;;;3.45;100.00
63903;BME280;50072;50.678;13.938;2023-11-19T06:59:58;99084.44;;;3.49;100.00
63903;BME280;50072;50.678;13.938;2023-11-19T07:02:24;99088.91;;;3.44;100.00
63903;BME280;50072;50.678;13.938;2023-11-19T07:04:51;99088.03;;;3.42;100.00
63903;BME280;50072;50.678;13.938;2023-11-19T07:07:17;99103.03;;;3.43;100.00
63903;BME280;50072;50.678;13.938;2023-11-19T07:09:42;99106.50;;;3.51;100.00
63903;BME280;50072;50.678;13.938;2023-11-19T07:12:09;99102.97;;;3.52;100.00
63903;BME280;50072;50.678;13.938;2023-11-19T07:14:36;99091.50;;;3.52;100.00
63903;BME280;50072;50.678;13.938;2023-11-19T07:17:02;99091.50;;;3.56;100.00
63903;BME280;50072;50.678;13.938;2023-11-19T07:19:31;99089.78;;;3.46;100.00
63903;BME280;50072;50.678;13.938;2023-11-19T07:21:57;99084.53;;;3.40;100.00
63903;BME280;50072;50.678;13.938;2023-11-19T07:24:24;99096.88;;;3.41;100.00
63903;BME280;50072;50.678;13.938;2023-11-19T07:26:51;99092.41;;;3.48;100.00
63903;BME280;50072;50.678;13.938;2023-11-19T07:29:18;99090.66;;;3.50;100.00
63903;BME280;50072;50.678;13.938;2023-11-19T07:31:44;99095.03;;;3.52;100.00
63903;BME280;50072;50.678;13.938;2023-11-19T07:34:11;99090.56;;;3.59;100.00
63903;BME280;50072;50.678;13.938;2023-11-19T07:36:37;99087.06;;;3.60;100.00
63903;BME280;50072;50.678;13.938;2023-11-19T07:39:04;99102.00;;;3.66;100.00
63903;BME280;50072;50.678;13.938;2023-11-19T07:41:31;99108.16;;;3.66;100.00
63903;BME280;50072;50.678;13.938;2023-11-19T07:43:57;99096.72;;;3.66;100.00
63903;BME280;50072;50.678;13.938;2023-11-19T07:46:23;99100.22;;;3.72;100.00
63903;BME280;50072;50.678;13.938;2023-11-19T07:48:49;99101.97;;;3.72;100.00
63903;BME280;50072;50.678;13.938;2023-11-19T07:51:18;99108.13;;;3.74;100.00
63903;BME280;50072;50.678;13.938;2023-11-19T07:53:44;99106.41;;;3.70;100.00
63903;BME280;50072;50.678;13.938;2023-11-19T07:56:12;99118.75;;;3.72;100.00
63903;BME280;50072;50.678;13.938;2023-11-19T07:58:38;99109.88;;;3.73;100.00
63903;BME280;50072;50.678;13.938;2023-11-19T08:01:06;99099.31;;;3.70;100.00
63903;BME280;50072;50.678;13.938;2023-11-19T08:03:33;99081.75;;;3.60;100.00
63903;BME280;50072;50.678;13.938;2023-11-19T08:06:03;99088.78;;;3.66;100.00
63903;BME280;50072;50.678;13.938;2023-11-19T08:08:30;99090.53;;;3.67;100.00
63903;BME280;50072;50.678;13.938;2023-11-19T08:10:58;99087.94;;;3.62;100.00
63903;BME280;50072;50.678;13.938;2023-11-19T08:13:24;99099.31;;;3.72;100.00
63903;BME280;50072;50.678;13.938;2023-11-19T08:15:52;99087.78;;;3.79;100.00
63903;BME280;50072;50.678;13.938;2023-11-19T08:18:19;99094.00;;;3.79;100.00
63903;BME280;50072;50.678;13.938;2023-11-19T08:20:45;99089.50;;;3.86;100.00
63903;BME280;50072;50.678;13.938;2023-11-19T08:23:16;99085.09;;;3.88;100.00
63903;BME280;50072;50.678;13.938;2023-11-19T08:25:43;99076.22;;;3.95;100.00
63903;BME280;50072;50.678;13.938;2023-11-19T08:28:10;99075.22;;;4.09;100.00
63903;BME280;50072;50.678;13.938;2023-11-19T08:30:37;99068.06;;;4.23;100.00
63903;BME280;50072;50.678;13.938;2023-11-19T08:33:04;99071.50;;;4.28;100.00
63903;BME280;50072;50.678;13.938;2023-11-19T08:35:32;99079.34;;;4.41;100.00
63903;BME280;50072;50.678;13.938;2023-11-19T08:37:58;99081.91;;;4.50;100.00
63903;BME280;50072;50.678;13.938;2023-11-19T08:40:25;99084.50;;;4.53;100.00
63903;BME280;50072;50.678;13.938;2023-11-19T08:42:52;99083.69;;;4.48;100.00
63903;BME280;50072;50.678;13.938;2023-11-19T08:45:18;99078.44;;;4.45;100.00
63903;BME280;50072;50.678;13.938;2023-11-19T08:47:44;99076.66;;;4.44;100.00
63903;BME280;50072;50.678;13.938;2023-11-19T08:50:11;99076.72;;;4.41;100.00
63903;BME280;50072;50.678;13.938;2023-11-19T08:52:38;99067.84;;;4.43;100.00
63903;BME280;50072;50.678;13.938;2023-11-19T08:55:04;99067.78;;;4.49;100.00
63903;BME280;50072;50.678;13.938;2023-11-19T08:57:35;99069.50;;;4.55;100.00
63903;BME280;50072;50.678;13.938;2023-11-19T09:00:02;99055.44;;;4.47;100.00
63903;BME280;50072;50.678;13.938;2023-11-19T09:02:35;99057.06;;;4.63;100.00
63903;BME280;50072;50.678;13.938;2023-11-19T09:05:04;99051.63;;;4.73;100.00
63903;BME280;50072;50.678;13.938;2023-11-19T09:07:31;99057.78;;;4.76;100.00
63903;BME280;50072;50.678;13.938;2023-11-19T09:09:57;99049.81;;;4.78;100.00
63903;BME280;50072;50.678;13.938;2023-11-19T09:12:23;99059.53;;;4.77;100.00
63903;BME280;50072;50.678;13.938;2023-11-19T09:14:49;99061.28;;;4.78;100.00
63903;BME280;50072;50.678;13.938;2023-11-19T09:17:16;99058.50;;;4.91;100.00
63903;BME280;50072;50.678;13.938;2023-11-19T09:19:46;99047.00;;;4.93;100.00
63903;BME280;50072;50.678;13.938;2023-11-19T09:22:13;99031.91;;;4.95;100.00
63903;BME280;50072;50.678;13.938;2023-11-19T09:24:39;99031.81;;;5.05;100.00
63903;BME280;50072;50.678;13.938;2023-11-19T09:27:06;99030.00;;;5.07;100.00
63903;BME280;50072;50.678;13.938;2023-11-19T09:29:32;99028.19;;;5.09;100.00
63903;BME280;50072;50.678;13.938;2023-11-19T09:31:59;99025.50;;;5.15;100.00
63903;BME280;50072;50.678;13.938;2023-11-19T09:34:26;99029.84;;;5.21;100.00
63903;BME280;50072;50.678;13.938;2023-11-19T09:36:54;99023.59;;;5.25;100.00
63903;BME280;50072;50.678;13.938;2023-11-19T09:39:22;99036.81;;;5.28;100.00
63903;BME280;50072;50.678;13.938;2023-11-19T09:41:49;99041.13;;;5.35;100.00
63903;BME280;50072;50.678;13.938;2023-11-19T09:44:15;99028.69;;;5.40;100.00
63903;BME280;50072;50.678;13.938;2023-11-19T09:46:44;99033.84;;;5.49;100.00
63903;BME280;50072;50.678;13.938;2023-11-19T09:49:13;99023.91;;;5.62;100.00
63903;BME280;50072;50.678;13.938;2023-11-19T09:51:41;99028.47;;;5.54;100.00
63903;BME280;50072;50.678;13.938;2023-11-19T09:54:07;99024.06;;;5.53;100.00
63903;BME280;50072;50.678;13.938;2023-11-19T09:56:35;99047.03;;;5.54;100.00
63903;BME280;50072;50.678;13.938;2023-11-19T09:59:02;99024.88;;;5.57;100.00
63903;BME280;50072;50.678;13.938;2023-11-19T10:01:28;99020.38;;;5.63;100.00
63903;BME280;50072;50.678;13.938;2023-11-19T10:03:56;99031.84;;;5.64;100.00
63903;BME280;50072;50.678;13.938;2023-11-19T10:06:24;99021.25;;;5.62;100.00
63903;BME280;50072;50.678;13.938;2023-11-19T10:08:51;99024.72;;;5.67;100.00
63903;BME280;50072;50.678;13.938;2023-11-19T10:11:18;99012.28;;;5.71;100.00
63903;BME280;50072;50.678;13.938;2023-11-19T10:13:44;99003.31;;;5.78;100.00
63903;BME280;50072;50.678;13.938;2023-11-19T10:16:14;99017.41;;;5.83;100.00
63903;BME280;50072;50.678;13.938;2023-11-19T10:18:48;99023.53;;;5.85;100.00
63903;BME280;50072;50.678;13.938;2023-11-19T10:21:19;99015.59;;;5.84;100.00
63903;BME280;50072;50.678;13.938;2023-11-19T10:23:54;99023.50;;;5.90;100.00
63903;BME280;50072;50.678;13.938;2023-11-19T10:26:27;99022.50;;;5.96;100.00
63903;BME280;50072;50.678;13.938;2023-11-19T10:28:55;99017.16;;;6.00;100.00
63903;BME280;50072;50.678;13.938;2023-11-19T10:31:21;99033.94;;;6.01;100.00
63903;BME280;50072;50.678;13.938;2023-11-19T10:33:52;99022.41;;;6.03;100.00
63903;BME280;50072;50.678;13.938;2023-11-19T10:36:19;99020.38;;;6.18;100.00
63903;BME280;50072;50.678;13.938;2023-11-19T10:38:56;99015.69;;;6.32;100.00
63903;BME280;50072;50.678;13.938;2023-11-19T10:41:30;99012.63;;;6.54;100.00
63903;BME280;50072;50.678;13.938;2023-11-19T10:43:57;99014.56;;;6.46;100.00
63903;BME280;50072;50.678;13.938;2023-11-19T10:46:37;99019.38;;;6.25;100.00
63903;BME280;50072;50.678;13.938;2023-11-19T10:49:05;99006.50;;;6.02;100.00
63903;BME280;50072;50.678;13.938;2023-11-19T10:51:32;99004.03;;;5.88;100.00
63903;BME280;50072;50.678;13.938;2023-11-19T10:54:02;99023.69;;;5.78;100.00
63903;BME280;50072;50.678;13.938;2023-11-19T10:56:32;99017.50;;;5.77;100.00
63903;BME280;50072;50.678;13.938;2023-11-19T10:59:02;99017.69;;;5.65;100.00
63903;BME280;50072;50.678;13.938;2023-11-19T11:01:58;99012.19;;;5.77;100.00
63903;BME280;50072;50.678;13.938;2023-11-19T11:04:26;99005.00;;;5.82;100.00
63903;BME280;50072;50.678;13.938;2023-11-19T11:06:58;99007.53;;;5.92;100.00
63903;BME280;50072;50.678;13.938;2023-11-19T11:09:28;99007.38;;;6.01;100.00
63903;BME280;50072;50.678;13.938;2023-11-19T11:11:56;99008.09;;;6.11;100.00
63903;BME280;50072;50.678;13.938;2023-11-19T11:14:24;99001.84;;;6.15;100.00
63903;BME280;50072;50.678;13.938;2023-11-19T11:16:53;99006.16;;;6.20;100.00
63903;BME280;50072;50.678;13.938;2023-11-19T11:19:19;99000.84;;;6.20;100.00
63903;BME280;50072;50.678;13.938;2023-11-19T11:21:53;98997.00;;;6.38;100.00
63903;BME280;50072;50.678;13.938;2023-11-19T11:36:00;98982.34;;;6.63;100.00
63903;BME280;50072;50.678;13.938;2023-11-19T11:38:36;98973.41;;;6.65;100.00
63903;BME280;50072;50.678;13.938;2023-11-19T11:41:24;98965.31;;;6.71;100.00
63903;BME280;50072;50.678;13.938;2023-11-19T11:43:52;98982.88;;;6.80;100.00
63903;BME280;50072;50.678;13.938;2023-11-19T11:49:03;98987.16;;;6.87;100.00
63903;BME280;50072;50.678;13.938;2023-11-19T11:54:11;98978.16;;;6.93;100.00
63903;BME280;50072;50.678;13.938;2023-11-19T11:57:13;98973.19;;;7.17;100.00
63903;BME280;50072;50.678;13.938;2023-11-19T11:59:46;98973.63;;;7.37;100.00
63903;BME280;50072;50.678;13.938;2023-11-19T12:02:19;98973.03;;;7.62;100.00
63903;BME280;50072;50.678;13.938;2023-11-19T12:04:49;98977.22;;;7.72;100.00
63903;BME280;50072;50.678;13.938;2023-11-19T12:07:21;98950.38;;;7.82;100.00
63903;BME280;50072;50.678;13.938;2023-11-19T12:09:53;98957.91;;;7.64;100.00
63903;BME280;50072;50.678;13.938;2023-11-19T12:12:27;98935.06;;;7.54;100.00
63903;BME280;50072;50.678;13.938;2023-11-19T12:15:09;98945.00;;;7.47;100.00
63903;BME280;50072;50.678;13.938;2023-11-19T12:17:52;98924.00;;;7.35;100.00
63903;BME280;50072;50.678;13.938;2023-11-19T12:20:22;98910.09;;;7.22;100.00
63903;BME280;50072;50.678;13.938;2023-11-19T12:22:48;98906.59;;;7.21;100.00
63903;BME280;50072;50.678;13.938;2023-11-19T12:25:16;98914.28;;;7.32;100.00
63903;BME280;50072;50.678;13.938;2023-11-19T12:27:50;98910.28;;;7.52;100.00
63903;BME280;50072;50.678;13.938;2023-11-19T12:30:23;98898.72;;;8.20;100.00
63903;BME280;50072;50.678;13.938;2023-11-19T12:32:50;98892.78;;;8.73;100.00
63903;BME280;50072;50.678;13.938;2023-11-19T12:35:20;98895.47;;;8.72;100.00
63903;BME280;50072;50.678;13.938;2023-11-19T12:37:48;98900.41;;;8.56;100.00
63903;BME280;50072;50.678;13.938;2023-11-19T12:40:20;98890.56;;;8.25;100.00
63903;BME280;50072;50.678;13.938;2023-11-19T12:42:50;98883.38;;;8.28;100.00
63903;BME280;50072;50.678;13.938;2023-11-19T12:45:19;98882.69;;;8.22;100.00
63903;BME280;50072;50.678;13.938;2023-11-19T12:47:47;98883.59;;;8.21;100.00
63903;BME280;50072;50.678;13.938;2023-11-19T12:50:15;98881.84;;;8.20;100.00
63903;BME280;50072;50.678;13.938;2023-11-19T12:52:43;98872.84;;;8.24;100.00
63903;BME280;50072;50.678;13.938;2023-11-19T12:55:28;98871.19;;;8.20;100.00
63903;BME280;50072;50.678;13.938;2023-11-19T12:57:55;98886.03;;;7.97;100.00
63903;BME280;50072;50.678;13.938;2023-11-19T13:00:25;98879.94;;;7.92;100.00
63903;BME280;50072;50.678;13.938;2023-11-19T13:02:56;98870.44;;;7.82;100.00
63903;BME280;50072;50.678;13.938;2023-11-19T13:05:33;98881.94;;;7.84;100.00
63903;BME280;50072;50.678;13.938;2023-11-19T13:08:02;98890.19;;;7.74;100.00
63903;BME280;50072;50.678;13.938;2023-11-19T13:10:33;98877.22;;;7.60;100.00
63903;BME280;50072;50.678;13.938;2023-11-19T13:13:09;98884.25;;;7.63;100.00
63903;BME280;50072;50.678;13.938;2023-11-19T13:15:50;98862.19;;;7.58;100.00
63903;BME280;50072;50.678;13.938;2023-11-19T13:18:16;98862.34;;;7.52;100.00
63903;BME280;50072;50.678;13.938;2023-11-19T13:20:51;98864.63;;;7.67;100.00
63903;BME280;50072;50.678;13.938;2023-11-19T13:23:19;98849.84;;;7.54;100.00
63903;BME280;50072;50.678;13.938;2023-11-19T13:25:45;98862.25;;;7.55;100.00